sensor_id;sensor_type;location;lat;lon;timestamp;pressure;altitude;pressure_sealevel;temperature;humidity
53758;BME280;39674;59.860;30.672;2024-03-02T00:01:37;102387.72;;;-0.24;100.00
53758;BME280;39674;59.860;30.672;2024-03-02T00:04:27;102319.41;;;-0.64;100.00
53758;BME280;39674;59.860;30.672;2024-03-02T00:07:15;102296.72;;;-0.73;100.00
53758;BME280;39674;59.860;30.672;2024-03-02T00:10:07;102369.28;;;-0.36;100.00
53758;BME280;39674;59.860;30.672;2024-03-02T00:13:31;102380.88;;;-0.20;100.00
53758;BME280;39674;59.860;30.672;2024-03-02T00:16:12;102417.69;;;0.03;100.00
53758;BME280;39674;59.860;30.672;2024-03-02T00:18:43;102367.78;;;-0.25;100.00
53758;BME280;39674;59.860;30.672;2024-03-02T00:21:32;102307.31;;;-0.63;100.00
53758;BME280;39674;59.860;30.672;2024-03-02T00:24:09;102329.28;;;-0.47;100.00
53758;BME280;39674;59.860;30.672;2024-03-02T00:26:50;102374.81;;;-0.21;100.00
53758;BME280;39674;59.860;30.672;2024-03-02T00:29:22;102297.78;;;-0.63;100.00
53758;BME280;39674;59.860;30.672;2024-03-02T00:32:13;102371.41;;;-0.17;100.00
53758;BME280;39674;59.860;30.672;2024-03-02T00:34:56;102406.50;;;0.07;100.00
53758;BME280;39674;59.860;30.672;2024-03-02T00:37:32;102296.16;;;-0.58;100.00
53758;BME280;39674;59.860;30.672;2024-03-02T00:40:12;102286.56;;;-0.62;100.00
53758;BME280;39674;59.860;30.672;2024-03-02T00:42:56;102306.66;;;-0.52;100.00
53758;BME280;39674;59.860;30.672;2024-03-02T00:45:30;102294.44;;;-0.59;100.00
53758;BME280;39674;59.860;30.672;2024-03-02T00:48:09;102308.38;;;-0.54;100.00
53758;BME280;39674;59.860;30.672;2024-03-02T00:50:42;102300.53;;;-0.55;100.00
53758;BME280;39674;59.860;30.672;2024-03-02T00:53:14;102407.50;;;0.12;100.00
53758;BME280;39674;59.860;30.672;2024-03-02T00:55:43;102339.91;;;-0.35;100.00
53758;BME280;39674;59.860;30.672;2024-03-02T00:58:15;102362.78;;;-0.15;100.00
53758;BME280;39674;59.860;30.672;2024-03-02T01:00:47;102306.75;;;-0.49;100.00
53758;BME280;39674;59.860;30.672;2024-03-02T01:03:22;102347.84;;;-0.26;100.00
53758;BME280;39674;59.860;30.672;2024-03-02T01:05:51;102306.78;;;-0.45;100.00
53758;BME280;39674;59.860;30.672;2024-03-02T01:08:34;102406.69;;;0.17;100.00
53758;BME280;39674;59.860;30.672;2024-03-02T01:11:06;102405.84;;;0.18;100.00
53758;BME280;39674;59.860;30.672;2024-03-02T01:13:38;102285.03;;;-0.52;100.00
53758;BME280;39674;59.860;30.672;2024-03-02T01:16:11;102370.00;;;0.01;100.00
53758;BME280;39674;59.860;30.672;2024-03-02T01:18:55;102410.31;;;0.25;100.00
53758;BME280;39674;59.860;30.672;2024-03-02T01:21:30;102276.47;;;-0.48;100.00
53758;BME280;39674;59.860;30.672;2024-03-02T01:24:20;102406.91;;;0.29;100.00
53758;BME280;39674;59.860;30.672;2024-03-02T01:26:54;102296.50;;;-0.41;100.00
53758;BME280;39674;59.860;30.672;2024-03-02T01:29:30;102290.44;;;-0.41;100.00
53758;BME280;39674;59.860;30.672;2024-03-02T01:31:59;102277.16;;;-0.57;100.00
53758;BME280;39674;59.860;30.672;2024-03-02T01:34:33;102378.69;;;0.00;100.00
53758;BME280;39674;59.860;30.672;2024-03-02T01:37:11;102371.72;;;-0.01;100.00
53758;BME280;39674;59.860;30.672;2024-03-02T01:39:49;102361.25;;;-0.04;100.00
53758;BME280;39674;59.860;30.672;2024-03-02T01:42:19;102294.72;;;-0.43;100.00
53758;BME280;39674;59.860;30.672;2024-03-02T01:44:58;102348.88;;;-0.18;100.00
53758;BME280;39674;59.860;30.672;2024-03-02T01:47:34;102300.84;;;-0.41;100.00
53758;BME280;39674;59.860;30.672;2024-03-02T01:50:19;102317.31;;;-0.39;100.00
53758;BME280;39674;59.860;30.672;2024-03-02T01:53:08;102305.13;;;-0.43;100.00
53758;BME280;39674;59.860;30.672;2024-03-02T01:55:42;102371.66;;;-0.04;100.00
53758;BME280;39674;59.860;30.672;2024-03-02T01:58:14;102277.03;;;-0.63;100.00
53758;BME280;39674;59.860;30.672;2024-03-02T02:00:46;102333.19;;;-0.24;100.00
53758;BME280;39674;59.860;30.672;2024-03-02T02:03:17;102372.56;;;-0.04;100.00
53758;BME280;39674;59.860;30.672;2024-03-02T02:05:53;102405.88;;;0.21;100.00
53758;BME280;39674;59.860;30.672;2024-03-02T02:08:38;102326.13;;;-0.31;100.00
53758;BME280;39674;59.860;30.672;2024-03-02T02:11:11;102283.19;;;-0.58;100.00
53758;BME280;39674;59.860;30.672;2024-03-02T02:13:50;102415.41;;;0.19;100.00
53758;BME280;39674;59.860;30.672;2024-03-02T02:16:25;102354.03;;;-0.21;100.00
53758;BME280;39674;59.860;30.672;2024-03-02T02:19:03;102344.53;;;-0.19;100.00
53758;BME280;39674;59.860;30.672;2024-03-02T02:21:42;102370.81;;;-0.03;100.00
53758;BME280;39674;59.860;30.672;2024-03-02T02:24:14;102355.91;;;-0.13;100.00
53758;BME280;39674;59.860;30.672;2024-03-02T02:26:48;102298.25;;;-0.41;100.00
53758;BME280;39674;59.860;30.672;2024-03-02T02:29:23;102322.66;;;-0.31;100.00
53758;BME280;39674;59.860;30.672;2024-03-02T02:31:59;102350.72;;;-0.13;100.00
53758;BME280;39674;59.860;30.672;2024-03-02T02:34:32;102369.13;;;-0.01;100.00
53758;BME280;39674;59.860;30.672;2024-03-02T02:37:08;102289.53;;;-0.43;100.00
53758;BME280;39674;59.860;30.672;2024-03-02T02:39:54;102338.50;;;-0.18;100.00
53758;BME280;39674;59.860;30.672;2024-03-02T02:42:44;102316.56;;;-0.32;100.00
53758;BME280;39674;59.860;30.672;2024-03-02T02:45:22;102314.88;;;-0.31;100.00
53758;BME280;39674;59.860;30.672;2024-03-02T02:48:03;102378.00;;;0.10;100.00
53758;BME280;39674;59.860;30.672;2024-03-02T02:50:46;102347.38;;;-0.06;100.00
53758;BME280;39674;59.860;30.672;2024-03-02T02:54:11;102298.34;;;-0.35;100.00
53758;BME280;39674;59.860;30.672;2024-03-02T02:56:25;102435.72;;;0.41;100.00
53758;BME280;39674;59.860;30.672;2024-03-02T02:59:00;102382.47;;;0.18;100.00
53758;BME280;39674;59.860;30.672;2024-03-02T03:01:35;102408.69;;;0.30;100.00
53758;BME280;39674;59.860;30.672;2024-03-02T03:04:07;102318.41;;;-0.26;100.00
53758;BME280;39674;59.860;30.672;2024-03-02T03:06:40;102422.72;;;0.41;100.00
53758;BME280;39674;59.860;30.672;2024-03-02T03:09:42;102295.88;;;-0.29;100.00
53758;BME280;39674;59.860;30.672;2024-03-02T03:12:20;102360.53;;;0.03;100.00
53758;BME280;39674;59.860;30.672;2024-03-02T03:15:00;102421.88;;;0.42;100.00
53758;BME280;39674;59.860;30.672;2024-03-02T03:17:43;102331.66;;;-0.12;100.00
53758;BME280;39674;59.860;30.672;2024-03-02T03:22:52;102310.72;;;-0.22;100.00
53758;BME280;39674;59.860;30.672;2024-03-02T03:23:25;102309.88;;;-0.21;100.00
53758;BME280;39674;59.860;30.672;2024-03-02T03:26:21;102376.47;;;0.22;100.00
53758;BME280;39674;59.860;30.672;2024-03-02T03:29:03;102385.91;;;0.17;100.00
53758;BME280;39674;59.860;30.672;2024-03-02T03:31:35;102308.94;;;-0.24;100.00
53758;BME280;39674;59.860;30.672;2024-03-02T03:34:17;102292.41;;;-0.29;100.00
53758;BME280;39674;59.860;30.672;2024-03-02T03:36:51;102319.47;;;-0.17;100.00
53758;BME280;39674;59.860;30.672;2024-03-02T03:39:32;102328.19;;;-0.13;100.00
53758;BME280;39674;59.860;30.672;2024-03-02T03:42:18;102283.63;;;-0.35;100.00
53758;BME280;39674;59.860;30.672;2024-03-02T03:44:58;102335.28;;;-0.04;100.00
53758;BME280;39674;59.860;30.672;2024-03-02T03:47:34;102413.22;;;0.42;100.00
53758;BME280;39674;59.860;30.672;2024-03-02T03:50:08;102373.00;;;0.21;100.00
53758;BME280;39674;59.860;30.672;2024-03-02T03:53:04;102409.84;;;0.47;100.00
53758;BME280;39674;59.860;30.672;2024-03-02T03:56:03;102298.66;;;-0.20;100.00
53758;BME280;39674;59.860;30.672;2024-03-02T03:58:59;102323.22;;;-0.02;100.00
53758;BME280;39674;59.860;30.672;2024-03-02T04:01:42;102368.75;;;0.25;100.00
53758;BME280;39674;59.860;30.672;2024-03-02T04:04:24;102268.94;;;-0.34;100.00
53758;BME280;39674;59.860;30.672;2024-03-02T04:07:05;102298.66;;;-0.20;100.00
53758;BME280;39674;59.860;30.672;2024-03-02T04:09:39;102357.41;;;0.21;100.00
53758;BME280;39674;59.860;30.672;2024-03-02T04:12:18;102381.13;;;0.40;100.00
53758;BME280;39674;59.860;30.672;2024-03-02T04:15:09;102284.13;;;-0.10;100.00
53758;BME280;39674;59.860;30.672;2024-03-02T04:18:10;102278.78;;;-0.16;100.00
53758;BME280;39674;59.860;30.672;2024-03-02T04:21:03;102291.97;;;-0.05;100.00
53758;BME280;39674;59.860;30.672;2024-03-02T04:23:41;102396.19;;;0.58;100.00
53758;BME280;39674;59.860;30.672;2024-03-02T04:26:12;102279.66;;;-0.17;100.00
53758;BME280;39674;59.860;30.672;2024-03-02T04:28:49;102291.94;;;-0.08;100.00
53758;BME280;39674;59.860;30.672;2024-03-02T04:31:46;102409.22;;;0.61;100.00
53758;BME280;39674;59.860;30.672;2024-03-02T04:34:21;102356.69;;;0.30;100.00
53758;BME280;39674;59.860;30.672;2024-03-02T04:36:52;102339.06;;;0.13;100.00
53758;BME280;39674;59.860;30.672;2024-03-02T04:39:24;102361.94;;;0.33;100.00
53758;BME280;39674;59.860;30.672;2024-03-02T04:41:59;102304.91;;;-0.10;100.00
53758;BME280;39674;59.860;30.672;2024-03-02T04:44:32;102310.16;;;-0.05;100.00
53758;BME280;39674;59.860;30.672;2024-03-02T04:47:07;102369.78;;;0.35;100.00
53758;BME280;39674;59.860;30.672;2024-03-02T04:49:37;102339.06;;;0.13;100.00
53758;BME280;39674;59.860;30.672;2024-03-02T04:52:11;102392.38;;;0.39;100.00
53758;BME280;39674;59.860;30.672;2024-03-02T04:55:30;102308.44;;;-0.05;100.00
53758;BME280;39674;59.860;30.672;2024-03-02T04:58:48;102417.97;;;0.66;100.00
53758;BME280;39674;59.860;30.672;2024-03-02T05:01:40;102381.97;;;0.40;100.00
53758;BME280;39674;59.860;30.672;2024-03-02T05:04:13;102412.75;;;0.66;100.00
53758;BME280;39674;59.860;30.672;2024-03-02T05:06:49;102350.56;;;0.26;100.00
53758;BME280;39674;59.860;30.672;2024-03-02T05:09:33;102411.94;;;0.69;100.00
53758;BME280;39674;59.860;30.672;2024-03-02T05:12:05;102349.75;;;0.29;100.00
53758;BME280;39674;59.860;30.672;2024-03-02T05:14:53;102364.59;;;0.36;100.00
53758;BME280;39674;59.860;30.672;2024-03-02T05:17:26;102313.78;;;0.03;100.00
53758;BME280;39674;59.860;30.672;2024-03-02T05:20:20;102356.81;;;0.36;100.00
53758;BME280;39674;59.860;30.672;2024-03-02T05:23:11;102347.09;;;0.26;100.00
53758;BME280;39674;59.860;30.672;2024-03-02T05:26:08;102281.53;;;-0.08;100.00
53758;BME280;39674;59.860;30.672;2024-03-02T05:28:53;102366.38;;;0.40;100.00
53758;BME280;39674;59.860;30.672;2024-03-02T05:31:41;102435.50;;;0.76;100.00
53758;BME280;39674;59.860;30.672;2024-03-02T05:34:54;102383.94;;;0.54;100.00
53758;BME280;39674;59.860;30.672;2024-03-02T05:38:09;102432.09;;;0.80;100.00
53758;BME280;39674;59.860;30.672;2024-03-02T05:42:36;102374.25;;;0.43;100.00
53758;BME280;39674;59.860;30.672;2024-03-02T05:44:20;102313.94;;;0.12;100.00
53758;BME280;39674;59.860;30.672;2024-03-02T05:47:28;102326.97;;;0.15;100.00
53758;BME280;39674;59.860;30.672;2024-03-02T05:50:15;102378.72;;;0.51;100.00
53758;BME280;39674;59.860;30.672;2024-03-02T05:56:47;102344.53;;;0.29;100.00
53758;BME280;39674;59.860;30.672;2024-03-02T06:02:13;102433.94;;;0.88;100.00
53758;BME280;39674;59.860;30.672;2024-03-02T06:06:20;102330.53;;;0.21;100.00
53758;BME280;39674;59.860;30.672;2024-03-02T06:09:27;102341.00;;;0.24;100.00
53758;BME280;39674;59.860;30.672;2024-03-02T06:13:34;102387.47;;;0.56;100.00
53758;BME280;39674;59.860;30.672;2024-03-02T06:15:41;102444.41;;;0.91;100.00
53758;BME280;39674;59.860;30.672;2024-03-02T06:19:04;102332.34;;;0.25;100.00
53758;BME280;39674;59.860;30.672;2024-03-02T06:22:02;102437.56;;;0.96;100.00
53758;BME280;39674;59.860;30.672;2024-03-02T06:29:24;102378.91;;;0.63;100.00
53758;BME280;39674;59.860;30.672;2024-03-02T06:32:19;102337.75;;;0.37;100.00
53758;BME280;39674;59.860;30.672;2024-03-02T06:38:01;102376.34;;;0.64;100.00
53758;BME280;39674;59.860;30.672;2024-03-02T06:39:16;102359.78;;;0.59;100.00
53758;BME280;39674;59.860;30.672;2024-03-02T06:49:55;102301.38;;;0.37;100.00
53758;BME280;39674;59.860;30.672;2024-03-02T06:52:51;102307.53;;;0.44;100.00
53758;BME280;39674;59.860;30.672;2024-03-02T06:56:19;102324.22;;;0.57;100.00
53758;BME280;39674;59.860;30.672;2024-03-02T06:59:15;102339.91;;;0.63;100.00
53758;BME280;39674;59.860;30.672;2024-03-02T07:02:43;102442.38;;;1.26;100.00
53758;BME280;39674;59.860;30.672;2024-03-02T07:05:37;102399.47;;;1.01;100.00
53758;BME280;39674;59.860;30.672;2024-03-02T07:15:37;102411.69;;;1.07;100.00
53758;BME280;39674;59.860;30.672;2024-03-02T07:18:46;102380.16;;;0.87;100.00
53758;BME280;39674;59.860;30.672;2024-03-02T07:21:53;102355.88;;;0.85;100.00
53758;BME280;39674;59.860;30.672;2024-03-02T07:25:46;102371.66;;;0.97;100.00
53758;BME280;39674;59.860;30.672;2024-03-02T07:28:23;102336.59;;;0.73;100.00
53758;BME280;39674;59.860;30.672;2024-03-02T07:31:37;102330.53;;;0.73;100.00
53758;BME280;39674;59.860;30.672;2024-03-02T07:34:40;102433.06;;;1.42;100.00
53758;BME280;39674;59.860;30.672;2024-03-02T07:37:49;102359.59;;;1.02;100.00
53758;BME280;39674;59.860;30.672;2024-03-02T07:40:24;102323.75;;;0.83;100.00
53758;BME280;39674;59.860;30.672;2024-03-02T07:43:06;102319.38;;;0.82;100.00
53758;BME280;39674;59.860;30.672;2024-03-02T07:45:42;102323.75;;;0.83;100.00
53758;BME280;39674;59.860;30.672;2024-03-02T07:48:31;102394.66;;;1.29;100.00
53758;BME280;39674;59.860;30.672;2024-03-02T07:51:10;102324.66;;;0.85;100.00
53758;BME280;39674;59.860;30.672;2024-03-02T07:54:04;102411.41;;;1.48;100.00
53758;BME280;39674;59.860;30.672;2024-03-02T07:56:35;102399.97;;;1.35;100.00
53758;BME280;39674;59.860;30.672;2024-03-02T07:59:11;102366.72;;;1.16;100.00
53758;BME280;39674;59.860;30.672;2024-03-02T08:01:45;102399.97;;;1.35;100.00
53758;BME280;39674;59.860;30.672;2024-03-02T08:07:59;102436.06;;;1.73;100.00
53758;BME280;39674;59.860;30.672;2024-03-02T08:10:44;102432.59;;;1.73;100.00
53758;BME280;39674;59.860;30.672;2024-03-02T08:13:20;102328.44;;;1.08;100.00
53758;BME280;39674;59.860;30.672;2024-03-02T08:15:53;102330.13;;;1.06;100.00
53758;BME280;39674;59.860;30.672;2024-03-02T08:18:39;102331.06;;;1.10;100.00
53758;BME280;39674;59.860;30.672;2024-03-02T08:25:07;102405.41;;;1.54;100.00
53758;BME280;39674;59.860;30.672;2024-03-02T08:27:52;102445.78;;;1.87;100.00
53758;BME280;39674;59.860;30.672;2024-03-02T08:30:41;102393.25;;;1.53;100.00
53758;BME280;39674;59.860;30.672;2024-03-02T08:33:13;102396.63;;;1.46;100.00
53758;BME280;39674;59.860;30.672;2024-03-02T08:36:20;102400.22;;;1.54;100.00
53758;BME280;39674;59.860;30.672;2024-03-02T08:38:53;102398.44;;;1.50;100.00
53758;BME280;39674;59.860;30.672;2024-03-02T08:41:55;102407.16;;;1.55;100.00
53758;BME280;39674;59.860;30.672;2024-03-02T08:44:35;102322.41;;;1.12;100.00
53758;BME280;39674;59.860;30.672;2024-03-02T08:47:06;102317.97;;;1.05;100.00
53758;BME280;39674;59.860;30.672;2024-03-02T08:49:48;102328.53;;;1.15;100.00
53758;BME280;39674;59.860;30.672;2024-03-02T08:52:22;102391.56;;;1.58;100.00
53758;BME280;39674;59.860;30.672;2024-03-02T08:54:55;102335.56;;;1.22;100.00
53758;BME280;39674;59.860;30.672;2024-03-02T08:57:50;102344.44;;;1.36;100.00
53758;BME280;39674;59.860;30.672;2024-03-02T09:00:24;102349.72;;;1.42;100.00
53758;BME280;39674;59.860;30.672;2024-03-02T09:03:00;102330.53;;;1.34;100.00
53758;BME280;39674;59.860;30.672;2024-03-02T09:05:51;102399.72;;;1.86;100.00
53758;BME280;39674;59.860;30.672;2024-03-02T09:08:51;102397.06;;;1.83;100.00
53758;BME280;39674;59.860;30.672;2024-03-02T09:12:18;102323.72;;;1.46;100.00
53758;BME280;39674;59.860;30.672;2024-03-02T09:15:26;102319.41;;;1.46;100.00
53758;BME280;39674;59.860;30.672;2024-03-02T09:18:39;102322.84;;;1.47;100.00
53758;BME280;39674;59.860;30.672;2024-03-02T09:21:51;102391.97;;;1.89;100.00
53758;BME280;39674;59.860;30.672;2024-03-02T09:24:47;102411.19;;;2.00;100.00
53758;BME280;39674;59.860;30.672;2024-03-02T09:27:25;102338.56;;;1.53;100.00
53758;BME280;39674;59.860;30.672;2024-03-02T09:30:31;102427.81;;;2.10;100.00
53758;BME280;39674;59.860;30.672;2024-03-02T09:33:40;102343.13;;;1.72;100.00
53758;BME280;39674;59.860;30.672;2024-03-02T09:36:30;102317.81;;;1.60;100.00
53758;BME280;39674;59.860;30.672;2024-03-02T09:39:29;102436.75;;;2.35;100.00
53758;BME280;39674;59.860;30.672;2024-03-02T09:42:08;102442.94;;;2.40;100.00
53758;BME280;39674;59.860;30.672;2024-03-02T09:45:18;102325.81;;;1.77;100.00
53758;BME280;39674;59.860;30.672;2024-03-02T09:48:10;102445.63;;;2.51;100.00
53758;BME280;39674;59.860;30.672;2024-03-02T09:51:01;102436.03;;;2.49;100.00
53758;BME280;39674;59.860;30.672;2024-03-02T09:53:44;102330.22;;;1.85;100.00
53758;BME280;39674;59.860;30.672;2024-03-02T09:56:48;102401.94;;;2.30;100.00
53758;BME280;39674;59.860;30.672;2024-03-02T09:59:54;102399.41;;;2.35;100.00
53758;BME280;39674;59.860;30.672;2024-03-02T10:02:29;102439.59;;;2.59;100.00
53758;BME280;39674;59.860;30.672;2024-03-02T10:05:01;102418.72;;;2.54;100.00
53758;BME280;39674;59.860;30.672;2024-03-02T10:14:31;102436.28;;;2.77;100.00
53758;BME280;39674;59.860;30.672;2024-03-02T10:18:32;102396.09;;;2.53;100.00
53758;BME280;39674;59.860;30.672;2024-03-02T10:28:49;102327.97;;;2.20;100.00
53758;BME280;39674;59.860;30.672;2024-03-02T10:32:49;102326.22;;;2.18;100.00
53758;BME280;39674;59.860;30.672;2024-03-02T10:35:42;102345.44;;;2.29;100.00
53758;BME280;39674;59.860;30.672;2024-03-02T10:38:42;102357.66;;;2.33;100.00
53758;BME280;39674;59.860;30.672;2024-03-02T10:41:25;102441.66;;;2.95;100.00
53758;BME280;39674;59.860;30.672;2024-03-02T10:48:17;102441.72;;;3.01;100.00
53758;BME280;39674;59.860;30.672;2024-03-02T10:54:46;102446.97;;;3.08;100.00
53758;BME280;39674;59.860;30.672;2024-03-02T10:58:04;102440.94;;;3.15;100.00
53758;BME280;39674;59.860;30.672;2024-03-02T11:01:44;102439.16;;;3.08;100.00
53758;BME280;39674;59.860;30.672;2024-03-02T11:04:56;102344.72;;;2.44;100.00
53758;BME280;39674;59.860;30.672;2024-03-02T11:08:43;102309.81;;;2.30;100.00
53758;BME280;39674;59.860;30.672;2024-03-02T11:12:23;102362.25;;;2.61;100.00
53758;BME280;39674;59.860;30.672;2024-03-02T11:29:45;102358.91;;;2.77;100.00
53758;BME280;39674;59.860;30.672;2024-03-02T11:32:28;102312.53;;;2.40;100.00
53758;BME280;39674;59.860;30.672;2024-03-02T11:35:24;102430.56;;;3.24;100.00
53758;BME280;39674;59.860;30.672;2024-03-02T11:38:30;102316.09;;;2.55;100.00
53758;BME280;39674;59.860;30.672;2024-03-02T11:41:18;102382.53;;;2.97;100.00
53758;BME280;39674;59.860;30.672;2024-03-02T11:44:08;102319.59;;;2.57;100.00
53758;BME280;39674;59.860;30.672;2024-03-02T11:46:59;102415.72;;;3.17;100.00
53758;BME280;39674;59.860;30.672;2024-03-02T11:49:46;102351.97;;;2.84;100.00
53758;BME280;39674;59.860;30.672;2024-03-02T11:52:30;102354.56;;;2.81;100.00
53758;BME280;39674;59.860;30.672;2024-03-02T11:55:25;102362.38;;;2.81;100.00
53758;BME280;39674;59.860;30.672;2024-03-02T11:58:24;102309.16;;;2.54;100.00
53758;BME280;39674;59.860;30.672;2024-03-02T12:06:43;102424.56;;;3.37;100.00
53758;BME280;39674;59.860;30.672;2024-03-02T12:10:38;102331.91;;;2.73;100.00
53758;BME280;39674;59.860;30.672;2024-03-02T12:13:54;102327.53;;;2.71;100.00
53758;BME280;39674;59.860;30.672;2024-03-02T12:16:53;102352.91;;;2.95;100.00
53758;BME280;39674;59.860;30.672;2024-03-02T12:19:38;102372.94;;;2.93;100.00
53758;BME280;39674;59.860;30.672;2024-03-02T12:23:04;102324.09;;;2.75;100.00
53758;BME280;39674;59.860;30.672;2024-03-02T12:25:45;102366.94;;;3.07;100.00
53758;BME280;39674;59.860;30.672;2024-03-02T12:28:19;102434.16;;;3.42;100.00
53758;BME280;39674;59.860;30.672;2024-03-02T12:30:49;102428.03;;;3.36;100.00
53758;BME280;39674;59.860;30.672;2024-03-02T12:33:21;102373.75;;;2.89;100.00
53758;BME280;39674;59.860;30.672;2024-03-02T12:35:51;102418.38;;;3.25;100.00
53758;BME280;39674;59.860;30.672;2024-03-02T12:38:32;102323.16;;;2.65;100.00
53758;BME280;39674;59.860;30.672;2024-03-02T12:41:14;102431.50;;;3.35;100.00
53758;BME280;39674;59.860;30.672;2024-03-02T12:44:08;102434.13;;;3.35;100.00
53758;BME280;39674;59.860;30.672;2024-03-02T12:46:39;102387.81;;;3.10;100.00
53758;BME280;39674;59.860;30.672;2024-03-02T12:49:35;102387.81;;;3.10;100.00
53758;BME280;39674;59.860;30.672;2024-03-02T12:52:15;102406.16;;;3.16;100.00
53758;BME280;39674;59.860;30.672;2024-03-02T12:55:36;102339.78;;;2.80;100.00
53758;BME280;39674;59.860;30.672;2024-03-02T13:02:34;102342.44;;;2.86;100.00
53758;BME280;39674;59.860;30.672;2024-03-02T13:05:08;102297.88;;;2.60;100.00
53758;BME280;39674;59.860;30.672;2024-03-02T13:14:42;102328.47;;;2.81;100.00
53758;BME280;39674;59.860;30.672;2024-03-02T13:17:28;102421.06;;;3.35;100.00
53758;BME280;39674;59.860;30.672;2024-03-02T13:20:49;102347.75;;;3.01;100.00
53758;BME280;39674;59.860;30.672;2024-03-02T13:23:44;102343.34;;;2.94;100.00
53758;BME280;39674;59.860;30.672;2024-03-02T13:26:23;102313.63;;;2.69;100.00
53758;BME280;39674;59.860;30.672;2024-03-02T13:29:28;102286.53;;;2.56;100.00
53758;BME280;39674;59.860;30.672;2024-03-02T13:32:36;102328.47;;;2.81;100.00
53758;BME280;39674;59.860;30.672;2024-03-02T13:35:56;102417.56;;;3.29;100.00
53758;BME280;39674;59.860;30.672;2024-03-02T13:46:28;102308.41;;;2.69;100.00
53758;BME280;39674;59.860;30.672;2024-03-02T13:50:20;102391.34;;;3.15;100.00
53758;BME280;39674;59.860;30.672;2024-03-02T13:53:29;102345.94;;;2.91;100.00
53758;BME280;39674;59.860;30.672;2024-03-02T13:56:41;102316.13;;;2.61;100.00
53758;BME280;39674;59.860;30.672;2024-03-02T13:59:36;102306.56;;;2.59;100.00
53758;BME280;39674;59.860;30.672;2024-03-02T14:02:27;102297.84;;;2.52;100.00
53758;BME280;39674;59.860;30.672;2024-03-02T14:05:34;102329.31;;;2.75;100.00
53758;BME280;39674;59.860;30.672;2024-03-02T14:10:00;102373.88;;;3.04;100.00
53758;BME280;39674;59.860;30.672;2024-03-02T14:13:24;102365.16;;;3.01;100.00
53758;BME280;39674;59.860;30.672;2024-03-02T14:15:56;102413.16;;;3.23;100.00
53758;BME280;39674;59.860;30.672;2024-03-02T14:19:28;102307.44;;;2.59;100.00
53758;BME280;39674;59.860;30.672;2024-03-02T14:22:26;102305.72;;;2.61;100.00
53758;BME280;39674;59.860;30.672;2024-03-02T14:26:22;102296.09;;;2.52;100.00
53758;BME280;39674;59.860;30.672;2024-03-02T14:34:06;102409.66;;;3.19;100.00
53758;BME280;39674;59.860;30.672;2024-03-02T14:37:37;102414.00;;;3.19;100.00
53758;BME280;39674;59.860;30.672;2024-03-02T14:40:54;102399.25;;;3.24;100.00
53758;BME280;39674;59.860;30.672;2024-03-02T14:44:43;102351.09;;;2.82;100.00
53758;BME280;39674;59.860;30.672;2024-03-02T14:47:40;102284.66;;;2.36;100.00
53758;BME280;39674;59.860;30.672;2024-03-02T15:11:10;102279.41;;;2.29;100.00
53758;BME280;39674;59.860;30.672;2024-03-02T15:14:46;102343.97;;;2.59;100.00
53758;BME280;39674;59.860;30.672;2024-03-02T15:18:12;102282.84;;;2.26;100.00
53758;BME280;39674;59.860;30.672;2024-03-02T15:21:37;102401.66;;;2.96;100.00
53758;BME280;39674;59.860;30.672;2024-03-02T15:24:46;102307.22;;;2.33;100.00
53758;BME280;39674;59.860;30.672;2024-03-02T15:27:47;102395.50;;;2.85;100.00
53758;BME280;39674;59.860;30.672;2024-03-02T15:30:17;102384.06;;;2.70;100.00
53758;BME280;39674;59.860;30.672;2024-03-02T15:32:47;102354.31;;;2.50;100.00
53758;BME280;39674;59.860;30.672;2024-03-02T15:35:21;102347.31;;;2.43;100.00
53758;BME280;39674;59.860;30.672;2024-03-02T15:37:56;102407.59;;;2.78;100.00
53758;BME280;39674;59.860;30.672;2024-03-02T15:40:24;102401.47;;;2.71;100.00
53758;BME280;39674;59.860;30.672;2024-03-02T15:42:55;102355.97;;;2.38;100.00
53758;BME280;39674;59.860;30.672;2024-03-02T15:45:25;102406.63;;;2.65;100.00
53758;BME280;39674;59.860;30.672;2024-03-02T15:48:02;102303.56;;;2.11;100.00
53758;BME280;39674;59.860;30.672;2024-03-02T15:50:31;102369.06;;;2.43;100.00
53758;BME280;39674;59.860;30.672;2024-03-02T15:53:03;102394.34;;;2.55;100.00
53758;BME280;39674;59.860;30.672;2024-03-02T15:55:34;102363.75;;;2.35;100.00
53758;BME280;39674;59.860;30.672;2024-03-02T15:58:14;102392.66;;;2.57;100.00
53758;BME280;39674;59.860;30.672;2024-03-02T16:00:46;102325.38;;;2.19;100.00
53758;BME280;39674;59.860;30.672;2024-03-02T16:03:25;102406.66;;;2.68;100.00
53758;BME280;39674;59.860;30.672;2024-03-02T16:06:20;102328.88;;;2.22;100.00
53758;BME280;39674;59.860;30.672;2024-03-02T16:09:04;102405.78;;;2.68;100.00
53758;BME280;39674;59.860;30.672;2024-03-02T16:11:38;102358.59;;;2.41;100.00
53758;BME280;39674;59.860;30.672;2024-03-02T16:14:11;102388.31;;;2.61;100.00
53758;BME280;39674;59.860;30.672;2024-03-02T16:16:43;102389.19;;;2.58;100.00
53758;BME280;39674;59.860;30.672;2024-03-02T16:19:14;102382.25;;;2.63;100.00
53758;BME280;39674;59.860;30.672;2024-03-02T16:21:43;102400.50;;;2.62;100.00
53758;BME280;39674;59.860;30.672;2024-03-02T16:24:12;102395.25;;;2.57;100.00
53758;BME280;39674;59.860;30.672;2024-03-02T16:26:41;102401.41;;;2.67;100.00
53758;BME280;39674;59.860;30.672;2024-03-02T16:29:12;102336.75;;;2.27;100.00
53758;BME280;39674;59.860;30.672;2024-03-02T16:31:44;102342.03;;;2.33;100.00
53758;BME280;39674;59.860;30.672;2024-03-02T16:34:14;102398.81;;;2.65;100.00